createdAt,value
2018-12-11T00:01:14.191Z,4.70
2018-12-11T00:03:41.624Z,4.70
2018-12-11T00:06:09.061Z,4.70
2018-12-11T00:08:36.574Z,4.80
2018-12-11T00:11:04.054Z,4.80
2018-12-11T00:13:31.491Z,4.70
2018-12-11T00:15:58.938Z,4.60
2018-12-11T00:18:26.371Z,4.50
2018-12-11T00:20:53.795Z,4.40
2018-12-11T00:23:21.246Z,4.40
2018-12-11T00:25:48.668Z,4.30
2018-12-11T00:28:16.086Z,4.20
2018-12-11T00:30:43.510Z,4.20
2018-12-11T00:33:10.941Z,4.20
2018-12-11T00:35:38.370Z,4.30
2018-12-11T00:38:05.846Z,4.40
2018-12-11T00:40:33.337Z,4.50
2018-12-11T00:43:00.774Z,4.50
2018-12-11T00:45:28.238Z,4.60
2018-12-11T00:47:55.659Z,4.70
2018-12-11T00:50:23.096Z,4.80
2018-12-11T00:52:50.583Z,4.80
2018-12-11T00:55:18.015Z,4.70
2018-12-11T00:57:45.494Z,4.60
2018-12-11T01:00:12.971Z,4.50
2018-12-11T01:02:40.659Z,4.40
2018-12-11T01:05:08.258Z,4.30
2018-12-11T01:07:35.722Z,4.20
2018-12-11T01:10:06.089Z,4.10
2018-12-11T01:12:33.566Z,4.10
2018-12-11T01:15:01.001Z,4.10
2018-12-11T01:17:28.514Z,4.10
2018-12-11T01:19:56.023Z,4.00
2018-12-11T01:22:23.502Z,3.90
2018-12-11T01:24:50.928Z,3.90
2018-12-11T01:27:18.365Z,3.80
2018-12-11T01:29:45.838Z,3.80
2018-12-11T01:32:13.287Z,3.70
2018-12-11T01:34:40.724Z,3.70
2018-12-11T01:37:08.292Z,3.70
2018-12-11T01:39:35.716Z,3.70
2018-12-11T01:42:03.295Z,3.80
2018-12-11T01:44:30.734Z,3.80
2018-12-11T01:46:58.170Z,3.80
2018-12-11T01:49:25.614Z,3.80
2018-12-11T01:51:53.168Z,3.70
2018-12-11T01:54:20.600Z,3.70
2018-12-11T01:56:48.027Z,3.60
2018-12-11T01:59:15.495Z,3.60
2018-12-11T02:01:42.928Z,3.70
2018-12-11T02:04:10.358Z,3.80
2018-12-11T02:06:37.887Z,3.80
2018-12-11T02:09:06.115Z,3.80
2018-12-11T02:11:34.051Z,3.80
2018-12-11T02:14:01.544Z,3.70
2018-12-11T02:16:29.019Z,3.70
2018-12-11T02:18:56.525Z,3.70
2018-12-11T02:21:24.364Z,3.70
2018-12-11T02:23:51.812Z,3.60
2018-12-11T02:26:19.247Z,3.60
2018-12-11T02:28:46.787Z,3.50
2018-12-11T02:31:14.296Z,3.50
2018-12-11T02:33:41.725Z,3.40
2018-12-11T02:36:09.159Z,3.50
2018-12-11T02:38:36.593Z,3.50
2018-12-11T02:41:04.074Z,3.50
2018-12-11T02:43:31.571Z,3.50
2018-12-11T02:45:59.009Z,3.60
2018-12-11T02:48:26.439Z,3.70
2018-12-11T02:50:53.999Z,3.70
2018-12-11T02:53:21.502Z,3.80
2018-12-11T02:55:48.929Z,3.90
2018-12-11T02:58:16.450Z,3.90
2018-12-11T03:00:43.879Z,4.00
2018-12-11T03:03:11.375Z,4.10
2018-12-11T03:05:38.999Z,4.10
2018-12-11T03:08:06.478Z,4.10
2018-12-11T03:10:33.918Z,4.10
2018-12-11T03:13:01.430Z,4.00
2018-12-11T03:15:28.869Z,4.00
2018-12-11T03:17:56.369Z,4.00
2018-12-11T03:20:23.882Z,4.00
2018-12-11T03:22:51.374Z,4.00
2018-12-11T03:25:18.811Z,3.90
2018-12-11T03:27:46.284Z,4.00
2018-12-11T03:30:13.719Z,4.00
2018-12-11T03:32:41.229Z,4.10
2018-12-11T03:35:08.726Z,4.10
2018-12-11T03:37:36.241Z,4.10
2018-12-11T03:40:04.754Z,4.10
2018-12-11T03:42:32.255Z,4.10
2018-12-11T03:44:59.762Z,4.10
2018-12-11T03:47:27.193Z,4.10
2018-12-11T03:49:54.630Z,4.10
2018-12-11T03:52:22.110Z,4.10
2018-12-11T03:54:49.531Z,4.10
2018-12-11T03:57:17.021Z,4.00
2018-12-11T03:59:44.488Z,3.90
2018-12-11T04:02:11.911Z,3.90
2018-12-11T04:04:39.470Z,3.80
2018-12-11T04:07:06.907Z,3.80
2018-12-11T04:18:08.325Z,3.70
2018-12-11T04:20:35.870Z,3.60
2018-12-11T04:23:03.302Z,3.50
2018-12-11T04:25:30.746Z,3.50
2018-12-11T04:27:58.298Z,3.50
2018-12-11T04:30:25.726Z,3.50
2018-12-11T04:32:53.232Z,3.50
2018-12-11T04:35:20.743Z,3.40
2018-12-11T04:37:48.175Z,3.40
2018-12-11T04:40:15.611Z,3.40
2018-12-11T04:42:43.053Z,3.40
2018-12-11T04:45:10.556Z,3.50
2018-12-11T04:47:37.982Z,3.60
2018-12-11T04:50:05.526Z,3.60
2018-12-11T04:52:33.016Z,3.70
2018-12-11T04:55:00.443Z,3.80
2018-12-11T04:57:28.006Z,3.80
2018-12-11T04:59:55.526Z,3.80
2018-12-11T05:02:22.964Z,3.80
2018-12-11T05:04:50.403Z,3.70
2018-12-11T05:07:17.848Z,3.70
2018-12-11T05:09:45.267Z,3.60
2018-12-11T05:12:12.795Z,3.50
2018-12-11T05:14:40.290Z,3.50
2018-12-11T05:17:07.724Z,3.50
2018-12-11T05:19:35.204Z,3.40
2018-12-11T05:22:02.693Z,3.40
2018-12-11T05:24:30.131Z,3.40
2018-12-11T05:26:57.847Z,3.40
2018-12-11T05:29:25.269Z,3.40
2018-12-11T05:31:52.774Z,3.30
2018-12-11T05:34:20.557Z,3.30
2018-12-11T05:36:48.059Z,3.30
2018-12-11T05:39:15.520Z,3.30
2018-12-11T05:41:42.951Z,3.30
2018-12-11T05:44:10.459Z,3.30
2018-12-11T05:46:37.904Z,3.20
2018-12-11T05:49:05.399Z,3.20
2018-12-11T05:51:32.820Z,3.20
2018-12-11T05:54:00.338Z,3.40
2018-12-11T05:56:27.840Z,3.50
2018-12-11T05:58:55.250Z,3.60
2018-12-11T06:01:22.694Z,3.60
2018-12-11T06:03:50.122Z,3.70
2018-12-11T06:06:17.531Z,3.80
2018-12-11T06:08:44.985Z,3.90
2018-12-11T06:11:12.695Z,3.90
2018-12-11T06:13:40.182Z,4.00
2018-12-11T06:16:07.654Z,4.00
2018-12-11T06:18:35.251Z,4.00
2018-12-11T06:21:02.681Z,4.00
2018-12-11T06:23:30.133Z,4.10
2018-12-11T06:25:58.216Z,4.10
2018-12-11T06:28:25.637Z,4.00
2018-12-11T06:30:53.053Z,4.10
2018-12-11T06:33:20.478Z,4.10
2018-12-11T06:35:49.296Z,4.10
2018-12-11T06:38:16.742Z,4.20
2018-12-11T06:40:44.146Z,4.20
2018-12-11T06:43:11.560Z,4.20
2018-12-11T06:45:39.011Z,4.20
2018-12-11T06:48:06.443Z,4.20
2018-12-11T06:50:33.861Z,4.20
2018-12-11T06:53:01.366Z,4.30
2018-12-11T06:55:28.808Z,4.30
2018-12-11T06:57:56.230Z,4.30
2018-12-11T07:00:23.643Z,4.10
2018-12-11T07:02:51.091Z,4.00
2018-12-11T07:05:19.141Z,3.90
2018-12-11T07:07:46.706Z,3.80
2018-12-11T07:10:14.128Z,3.80
2018-12-11T07:12:41.546Z,3.70
2018-12-11T07:15:09.087Z,3.70
2018-12-11T07:17:36.602Z,3.60
2018-12-11T07:20:05.903Z,3.60
2018-12-11T07:22:33.320Z,3.60
2018-12-11T07:25:00.745Z,3.70
2018-12-11T07:27:28.166Z,3.90
2018-12-11T07:29:55.595Z,3.90
2018-12-11T07:32:23.034Z,3.90
2018-12-11T07:34:50.474Z,3.90
2018-12-11T07:37:17.953Z,3.90
2018-12-11T07:39:45.454Z,3.80
2018-12-11T07:42:12.866Z,3.90
2018-12-11T07:44:40.312Z,4.00
2018-12-11T07:47:07.734Z,4.00
2018-12-11T07:49:35.167Z,4.00
2018-12-11T07:52:02.590Z,4.00
2018-12-11T07:54:30.247Z,4.00
2018-12-11T07:56:57.682Z,4.20
2018-12-11T07:59:25.119Z,4.20
2018-12-11T08:01:52.814Z,4.10
2018-12-11T08:04:20.239Z,4.20
2018-12-11T08:06:47.662Z,4.40
2018-12-11T08:09:15.110Z,4.70
2018-12-11T08:11:42.543Z,4.90
2018-12-11T08:14:09.970Z,5.10
2018-12-11T08:16:37.434Z,5.20
2018-12-11T08:19:05.115Z,5.10
2018-12-11T08:21:32.591Z,5.10
2018-12-11T08:24:00.119Z,5.00
2018-12-11T08:26:27.597Z,5.00
2018-12-11T08:28:55.101Z,5.00
2018-12-11T08:31:22.537Z,5.10
2018-12-11T08:33:49.959Z,5.20
2018-12-11T08:36:17.390Z,5.20
2018-12-11T08:38:44.808Z,5.20
2018-12-11T08:41:12.223Z,5.30
2018-12-11T08:43:39.644Z,5.40
2018-12-11T08:46:07.072Z,5.40
2018-12-11T08:48:34.807Z,5.50
2018-12-11T08:51:02.201Z,5.50
2018-12-11T08:53:29.640Z,5.50
2018-12-11T08:55:57.167Z,5.60
2018-12-11T08:58:24.646Z,5.60
2018-12-11T09:00:52.279Z,5.60
2018-12-11T09:03:19.808Z,5.60
2018-12-11T09:05:48.684Z,5.60
2018-12-11T09:08:16.187Z,5.60
2018-12-11T09:10:43.682Z,5.70
2018-12-11T09:13:11.094Z,5.90
2018-12-11T09:15:38.528Z,6.10
2018-12-11T09:20:33.376Z,6.80
2018-12-11T09:23:00.806Z,7.10
2018-12-11T09:25:28.231Z,7.30
2018-12-11T09:27:55.714Z,7.50
2018-12-11T09:30:23.204Z,7.50
2018-12-11T09:32:50.695Z,7.40
2018-12-11T09:35:18.128Z,7.30
2018-12-11T09:37:45.570Z,7.00
2018-12-11T09:40:13.057Z,6.80
2018-12-11T09:42:40.505Z,6.50
2018-12-11T09:45:07.962Z,6.50
2018-12-11T09:47:35.440Z,6.40
2018-12-11T09:50:03.112Z,6.30
2018-12-11T09:52:30.557Z,6.30
2018-12-11T09:54:58.482Z,6.30
2018-12-11T09:57:25.925Z,6.30
2018-12-11T09:59:53.346Z,6.40
2018-12-11T10:02:20.764Z,6.50
2018-12-11T10:04:48.196Z,6.50
2018-12-11T10:07:15.610Z,6.50
2018-12-11T10:09:43.023Z,6.50
2018-12-11T10:12:10.455Z,6.50
2018-12-11T10:14:37.866Z,6.60
2018-12-11T10:17:05.387Z,6.60
2018-12-11T10:19:32.862Z,6.60
2018-12-11T10:22:00.270Z,6.70
2018-12-11T10:24:27.708Z,6.80
2018-12-11T10:26:55.214Z,6.90
2018-12-11T10:29:22.676Z,6.90
2018-12-11T10:31:50.094Z,6.90
2018-12-11T10:34:17.506Z,7.20
2018-12-11T10:36:44.936Z,7.30
2018-12-11T10:39:12.358Z,7.30
2018-12-11T10:41:39.776Z,7.60
2018-12-11T10:44:07.201Z,7.40
2018-12-11T10:46:34.687Z,7.20
2018-12-11T10:49:02.175Z,7.30
2018-12-11T10:51:29.605Z,7.70
2018-12-11T10:53:57.026Z,8.10
2018-12-11T10:56:24.538Z,8.50
2018-12-11T10:58:52.001Z,8.60
2018-12-11T11:01:19.505Z,8.60
2018-12-11T11:03:47.022Z,8.30
2018-12-11T11:06:14.442Z,7.90
2018-12-11T11:08:43.316Z,7.80
2018-12-11T11:11:10.819Z,7.70
2018-12-11T11:13:38.274Z,7.70
2018-12-11T11:16:07.682Z,7.90
2018-12-11T11:18:35.104Z,7.90
2018-12-11T11:21:02.601Z,8.00
2018-12-11T11:23:30.041Z,8.00
2018-12-11T11:25:57.552Z,8.10
2018-12-11T11:28:24.983Z,8.10
2018-12-11T11:30:52.476Z,8.10
2018-12-11T11:33:19.981Z,8.10
2018-12-11T11:35:47.499Z,8.00
2018-12-11T11:38:15.249Z,7.90
2018-12-11T11:40:42.743Z,8.00
2018-12-11T11:43:10.238Z,8.00
2018-12-11T11:45:37.666Z,8.10
2018-12-11T11:48:05.086Z,8.10
2018-12-11T11:50:32.588Z,8.00
2018-12-11T11:53:00.010Z,7.90
2018-12-11T11:55:27.423Z,7.70
2018-12-11T11:57:54.954Z,7.50
2018-12-11T12:00:22.382Z,7.50
2018-12-11T12:02:49.870Z,7.40
2018-12-11T12:05:17.302Z,7.40
2018-12-11T12:07:44.838Z,7.60
2018-12-11T12:10:12.279Z,7.70
2018-12-11T12:12:39.846Z,7.70
2018-12-11T12:15:07.434Z,7.60
2018-12-11T12:17:34.863Z,7.60
2018-12-11T12:20:02.803Z,7.60
2018-12-11T12:22:30.227Z,7.60
2018-12-11T12:24:57.667Z,7.70
2018-12-11T12:27:25.094Z,7.90
2018-12-11T12:29:52.567Z,8.00
2018-12-11T12:32:19.987Z,8.10
2018-12-11T12:34:47.395Z,7.90
2018-12-11T12:37:14.818Z,7.80
2018-12-11T12:39:42.239Z,7.40
2018-12-11T12:42:09.659Z,7.40
2018-12-11T12:44:37.184Z,7.60
2018-12-11T12:47:04.667Z,7.60
2018-12-11T12:49:32.115Z,7.60
2018-12-11T12:51:59.604Z,7.40
2018-12-11T12:54:27.024Z,7.30
2018-12-11T12:56:54.463Z,7.20
2018-12-11T12:59:21.960Z,7.10
2018-12-11T13:01:49.495Z,7.10
2018-12-11T13:04:16.922Z,7.10
2018-12-11T13:06:44.650Z,7.20
2018-12-11T13:09:12.213Z,7.30
2018-12-11T13:11:39.653Z,7.30
2018-12-11T13:14:07.309Z,7.40
2018-12-11T13:16:34.758Z,7.30
2018-12-11T13:19:02.255Z,7.30
2018-12-11T13:21:29.704Z,7.20
2018-12-11T13:23:57.129Z,7.20
2018-12-11T13:26:24.595Z,7.50
2018-12-11T13:28:52.067Z,7.90
2018-12-11T13:31:19.490Z,8.20
2018-12-11T13:33:46.919Z,8.20
2018-12-11T13:36:14.391Z,8.10
2018-12-11T13:38:41.884Z,8.10
2018-12-11T13:41:09.309Z,8.10
2018-12-11T13:43:36.831Z,8.10
2018-12-11T13:46:04.262Z,8.10
2018-12-11T13:48:31.855Z,8.00
2018-12-11T13:50:59.439Z,7.90
2018-12-11T13:53:26.859Z,7.80
2018-12-11T13:55:54.300Z,7.70
2018-12-11T13:58:21.802Z,7.60
2018-12-11T14:00:49.286Z,7.70
2018-12-11T14:03:16.703Z,7.70
2018-12-11T14:05:44.127Z,7.80
2018-12-11T14:08:11.550Z,7.80
2018-12-11T14:10:38.962Z,7.80
2018-12-11T14:13:07.336Z,7.70
2018-12-11T14:15:34.847Z,7.70
2018-12-11T14:18:02.351Z,7.70
2018-12-11T14:20:29.915Z,7.70
2018-12-11T14:22:57.338Z,7.60
2018-12-11T14:25:24.879Z,7.60
2018-12-11T14:27:52.353Z,7.60
2018-12-11T14:30:20.802Z,7.60
2018-12-11T14:32:48.260Z,7.60
2018-12-11T14:35:15.846Z,7.60
2018-12-11T14:37:43.315Z,7.50
2018-12-11T14:40:10.863Z,7.50
2018-12-11T14:42:38.336Z,7.40
2018-12-11T14:45:06.259Z,7.40
2018-12-11T14:47:33.792Z,7.30
2018-12-11T14:50:01.327Z,7.30
2018-12-11T14:52:28.767Z,7.20
2018-12-11T14:54:56.188Z,7.10
2018-12-11T14:57:23.903Z,7.00
2018-12-11T14:59:51.398Z,7.00
2018-12-11T15:02:18.894Z,6.90
2018-12-11T15:04:46.555Z,6.90
2018-12-11T15:07:13.987Z,6.80
2018-12-11T15:09:43.546Z,6.70
2018-12-11T15:12:10.979Z,6.70
2018-12-11T15:14:38.424Z,6.60
2018-12-11T15:17:05.854Z,6.60
2018-12-11T15:19:33.266Z,6.60
2018-12-11T15:22:00.712Z,6.60
2018-12-11T15:24:28.138Z,6.60
2018-12-11T15:26:55.551Z,6.50
2018-12-11T15:29:23.026Z,6.50
2018-12-11T15:31:50.467Z,6.50
2018-12-11T15:34:17.943Z,6.50
2018-12-11T15:36:45.359Z,6.50
2018-12-11T15:39:12.965Z,6.40
2018-12-11T15:41:40.376Z,6.40
2018-12-11T15:44:07.810Z,6.40
2018-12-11T15:46:35.821Z,6.40
2018-12-11T15:49:03.239Z,6.30
2018-12-11T15:51:30.659Z,6.30
2018-12-11T15:53:58.099Z,6.30
2018-12-11T15:56:25.517Z,6.20
2018-12-11T15:58:53.230Z,6.10
2018-12-11T16:01:20.678Z,6.00
2018-12-11T16:03:48.139Z,6.00
2018-12-11T16:06:15.569Z,5.90
2018-12-11T16:08:43.001Z,5.80
2018-12-11T16:11:10.485Z,5.90
2018-12-11T16:13:37.992Z,5.90
2018-12-11T16:16:05.435Z,5.90
2018-12-11T16:18:32.862Z,6.00
2018-12-11T16:21:00.303Z,5.90
2018-12-11T16:23:27.742Z,6.00
2018-12-11T16:25:55.159Z,6.00
2018-12-11T16:28:22.662Z,6.00
2018-12-11T16:30:50.095Z,6.00
2018-12-11T16:33:17.519Z,5.90
2018-12-11T16:35:44.958Z,6.00
2018-12-11T16:38:12.426Z,6.00
2018-12-11T16:40:39.859Z,5.90
2018-12-11T16:43:07.288Z,5.90
2018-12-11T16:45:34.766Z,6.00
2018-12-11T16:48:02.199Z,5.90
2018-12-11T16:50:29.624Z,5.90
2018-12-11T16:52:57.052Z,6.00
2018-12-11T16:55:24.618Z,6.00
2018-12-11T16:57:52.039Z,6.00
2018-12-11T17:00:19.451Z,5.90
2018-12-11T17:02:46.894Z,5.90
2018-12-11T17:05:14.337Z,5.90
2018-12-11T17:07:41.877Z,5.90
2018-12-11T17:10:09.334Z,5.90
2018-12-11T17:12:37.218Z,5.90
2018-12-11T17:15:07.180Z,5.90
2018-12-11T17:17:34.756Z,5.80
2018-12-11T17:20:02.189Z,5.80
2018-12-11T17:22:29.690Z,5.70
2018-12-11T17:24:57.231Z,5.70
2018-12-11T17:27:24.690Z,5.70
2018-12-11T17:29:52.146Z,5.70
2018-12-11T17:32:19.563Z,5.70
2018-12-11T17:34:47.078Z,5.60
2018-12-11T17:37:14.650Z,5.60
2018-12-11T17:39:42.116Z,5.50
2018-12-11T17:42:09.518Z,5.50
2018-12-11T17:44:36.954Z,5.50
2018-12-11T17:47:04.461Z,5.50
2018-12-11T17:49:31.922Z,5.60
2018-12-11T17:51:59.411Z,5.60
2018-12-11T17:54:26.833Z,5.70
2018-12-11T17:56:54.423Z,5.70
2018-12-11T17:59:21.894Z,5.80
2018-12-11T18:01:50.767Z,5.80
2018-12-11T18:04:18.219Z,5.80
2018-12-11T18:06:45.664Z,5.80
2018-12-11T18:09:13.091Z,5.80
2018-12-11T18:11:40.578Z,5.80
2018-12-11T18:14:08.023Z,5.80
2018-12-11T18:16:35.491Z,5.80
2018-12-11T18:19:02.970Z,5.80
2018-12-11T18:21:30.453Z,5.80
2018-12-11T18:23:57.971Z,5.80
2018-12-11T18:26:25.422Z,5.80
2018-12-11T18:28:52.854Z,5.80
2018-12-11T18:31:20.282Z,5.80
2018-12-11T18:33:47.726Z,5.80
2018-12-11T18:36:15.193Z,5.80
2018-12-11T18:38:42.951Z,5.80
2018-12-11T18:41:10.562Z,5.80
2018-12-11T18:43:38.222Z,5.90
2018-12-11T18:46:05.624Z,5.90
2018-12-11T18:48:34.091Z,5.90
2018-12-11T18:51:01.603Z,5.90
2018-12-11T18:53:29.037Z,5.90
2018-12-11T18:55:56.551Z,5.90
2018-12-11T18:58:24.797Z,5.90
2018-12-11T19:00:52.300Z,5.90
2018-12-11T19:03:19.733Z,5.90
2018-12-11T19:05:47.146Z,5.90
2018-12-11T19:08:14.580Z,5.90
2018-12-11T19:10:42.086Z,5.90
2018-12-11T19:13:09.511Z,5.90
2018-12-11T19:15:37.059Z,5.90
2018-12-11T19:18:04.770Z,5.80
2018-12-11T19:20:33.627Z,5.80
2018-12-11T19:23:08.426Z,5.80
2018-12-11T19:25:35.972Z,5.90
2018-12-11T19:28:03.537Z,5.90
2018-12-11T19:30:31.026Z,6.00
2018-12-11T19:32:58.462Z,6.00
2018-12-11T19:35:25.952Z,6.00
2018-12-11T19:37:53.363Z,5.90
2018-12-11T19:40:20.793Z,5.80
2018-12-11T19:42:48.862Z,5.80
2018-12-11T19:45:16.389Z,5.70
2018-12-11T19:47:43.809Z,5.70
2018-12-11T19:50:11.266Z,5.70
2018-12-11T19:52:39.966Z,5.70
2018-12-11T19:55:08.401Z,5.70
2018-12-11T19:57:35.838Z,5.60
2018-12-11T20:00:06.423Z,5.70
2018-12-11T20:02:33.880Z,5.70
2018-12-11T20:05:01.310Z,5.60
2018-12-11T20:07:28.753Z,5.60
2018-12-11T20:10:01.907Z,5.70
2018-12-11T20:12:29.413Z,5.70
2018-12-11T20:14:56.847Z,5.70
2018-12-11T20:17:25.292Z,5.70
2018-12-11T20:19:52.755Z,5.70
2018-12-11T20:22:20.207Z,5.60
2018-12-11T20:24:47.981Z,5.60
2018-12-11T20:27:15.423Z,5.50
2018-12-11T20:29:42.899Z,5.50
2018-12-11T20:32:10.331Z,5.40
2018-12-11T20:34:39.206Z,5.40
2018-12-11T20:37:07.280Z,5.30
2018-12-11T20:39:35.690Z,5.30
2018-12-11T20:42:03.152Z,5.10
2018-12-11T20:44:30.657Z,5.10
2018-12-11T20:46:58.158Z,5.10
2018-12-11T20:49:25.592Z,5.00
2018-12-11T20:51:53.328Z,5.00
2018-12-11T20:54:20.767Z,5.10
2018-12-11T20:56:48.207Z,5.10
2018-12-11T20:59:15.679Z,5.10
2018-12-11T21:01:43.210Z,5.10
2018-12-11T21:04:10.883Z,5.10
2018-12-11T21:06:38.315Z,5.10
2018-12-11T21:09:08.568Z,5.00
2018-12-11T21:11:36.913Z,4.90
2018-12-11T21:19:00.827Z,4.60
2018-12-11T21:21:28.490Z,4.70
2018-12-11T21:23:56.764Z,4.70
2018-12-11T21:26:24.773Z,4.60
2018-12-11T21:28:52.187Z,4.60
2018-12-11T21:31:19.622Z,4.70
2018-12-11T21:33:47.078Z,4.70
2018-12-11T21:36:14.498Z,4.70
2018-12-11T21:38:42.012Z,4.70
2018-12-11T21:41:09.456Z,4.80
2018-12-11T21:43:36.875Z,4.70
2018-12-11T21:46:05.658Z,4.70
2018-12-11T21:48:33.219Z,4.60
2018-12-11T21:51:00.796Z,4.60
2018-12-11T21:53:28.298Z,4.50
2018-12-11T21:55:55.746Z,4.50
2018-12-11T21:58:23.234Z,4.40
2018-12-11T22:00:50.842Z,4.30
2018-12-11T22:03:18.531Z,4.30
2018-12-11T22:05:46.095Z,4.10
2018-12-11T22:08:13.532Z,4.10
2018-12-11T22:10:41.048Z,4.10
2018-12-11T22:13:08.474Z,4.10
2018-12-11T22:15:35.902Z,4.10
2018-12-11T22:18:03.356Z,4.10
2018-12-11T22:20:30.775Z,4.10
2018-12-11T22:22:58.198Z,4.20
2018-12-11T22:25:25.688Z,4.10
2018-12-11T22:27:53.119Z,4.10
2018-12-11T22:30:20.540Z,4.10
2018-12-11T22:32:47.983Z,4.10
2018-12-11T22:35:15.518Z,4.10
2018-12-11T22:37:42.950Z,4.20
2018-12-11T22:40:10.403Z,4.30
2018-12-11T22:42:37.834Z,4.30
2018-12-11T22:45:05.310Z,4.40
2018-12-11T22:47:32.788Z,4.50
2018-12-11T22:50:00.282Z,4.50
2018-12-11T22:52:27.722Z,4.50
2018-12-11T22:54:55.459Z,4.60
2018-12-11T22:57:22.962Z,4.60
2018-12-11T22:59:50.386Z,4.60
2018-12-11T23:02:17.962Z,4.60
2018-12-11T23:04:45.378Z,4.60
2018-12-11T23:07:12.860Z,4.60
2018-12-11T23:09:42.246Z,4.60
2018-12-11T23:12:09.675Z,4.70
2018-12-11T23:14:37.110Z,4.70
2018-12-11T23:17:04.600Z,4.70
2018-12-11T23:19:32.062Z,4.60
2018-12-11T23:21:59.478Z,4.60
2018-12-11T23:24:26.941Z,4.60
2018-12-11T23:26:54.726Z,4.70
2018-12-11T23:29:22.143Z,4.60
2018-12-11T23:31:49.559Z,4.70
2018-12-11T23:34:17.091Z,4.70
2018-12-11T23:36:44.510Z,4.70
2018-12-11T23:39:12.023Z,4.80
2018-12-11T23:41:39.468Z,4.70
2018-12-11T23:44:06.898Z,4.80
2018-12-11T23:46:34.329Z,4.80
2018-12-11T23:49:01.778Z,4.80
2018-12-11T23:51:29.207Z,4.70
2018-12-11T23:53:56.643Z,4.70
2018-12-11T23:56:24.102Z,4.60
2018-12-11T23:58:51.522Z,4.60
